sensor_id;sensor_type;location;lat;lon;timestamp;P1;durP1;ratioP1;P2;durP2;ratioP2
30287;SDS011;17103;48.316;11.558;2023-08-01T00:00:11;2.38;;;2.03;;
30287;SDS011;17103;48.316;11.558;2023-08-01T00:02:38;3.40;;;2.22;;
30287;SDS011;17103;48.316;11.558;2023-08-01T00:05:04;7.40;;;1.80;;
30287;SDS011;17103;48.316;11.558;2023-08-01T00:07:37;5.70;;;2.15;;
30287;SDS011;17103;48.316;11.558;2023-08-01T00:12:32;3.25;;;1.80;;
30287;SDS011;17103;48.316;11.558;2023-08-01T00:14:58;8.73;;;2.50;;
30287;SDS011;17103;48.316;11.558;2023-08-01T00:20:15;2.40;;;1.60;;
30287;SDS011;17103;48.316;11.558;2023-08-01T00:22:41;3.33;;;2.05;;
30287;SDS011;17103;48.316;11.558;2023-08-01T00:25:07;5.07;;;2.67;;
30287;SDS011;17103;48.316;11.558;2023-08-01T00:27:33;2.97;;;2.05;;
30287;SDS011;17103;48.316;11.558;2023-08-01T00:29:58;4.72;;;2.13;;
30287;SDS011;17103;48.316;11.558;2023-08-01T00:32:28;3.58;;;1.90;;
30287;SDS011;17103;48.316;11.558;2023-08-01T00:34:57;6.05;;;2.00;;
30287;SDS011;17103;48.316;11.558;2023-08-01T00:37:32;2.13;;;1.52;;
30287;SDS011;17103;48.316;11.558;2023-08-01T00:39:59;3.00;;;1.98;;
30287;SDS011;17103;48.316;11.558;2023-08-01T00:42:26;4.78;;;2.40;;
30287;SDS011;17103;48.316;11.558;2023-08-01T00:44:51;2.50;;;1.60;;
30287;SDS011;17103;48.316;11.558;2023-08-01T00:47:23;2.13;;;1.55;;
30287;SDS011;17103;48.316;11.558;2023-08-01T00:49:50;4.28;;;2.05;;
30287;SDS011;17103;48.316;11.558;2023-08-01T00:52:22;2.42;;;1.55;;
30287;SDS011;17103;48.316;11.558;2023-08-01T00:54:48;2.33;;;1.38;;
30287;SDS011;17103;48.316;11.558;2023-08-01T00:57:16;2.80;;;1.48;;
30287;SDS011;17103;48.316;11.558;2023-08-01T00:59:43;3.20;;;1.73;;
30287;SDS011;17103;48.316;11.558;2023-08-01T01:02:11;2.67;;;1.48;;
30287;SDS011;17103;48.316;11.558;2023-08-01T01:04:37;3.30;;;1.70;;
30287;SDS011;17103;48.316;11.558;2023-08-01T01:07:09;4.75;;;1.80;;
30287;SDS011;17103;48.316;11.558;2023-08-01T01:09:42;2.10;;;1.48;;
30287;SDS011;17103;48.316;11.558;2023-08-01T01:12:08;2.83;;;1.80;;
30287;SDS011;17103;48.316;11.558;2023-08-01T01:17:02;2.55;;;1.65;;
30287;SDS011;17103;48.316;11.558;2023-08-01T01:19:30;3.53;;;1.80;;
30287;SDS011;17103;48.316;11.558;2023-08-01T01:21:55;2.05;;;1.50;;
30287;SDS011;17103;48.316;11.558;2023-08-01T01:24:23;2.25;;;1.63;;
30287;SDS011;17103;48.316;11.558;2023-08-01T01:26:52;3.35;;;1.90;;
30287;SDS011;17103;48.316;11.558;2023-08-01T01:29:26;3.28;;;1.38;;
30287;SDS011;17103;48.316;11.558;2023-08-01T01:31:53;2.55;;;1.65;;
30287;SDS011;17103;48.316;11.558;2023-08-01T01:34:19;2.97;;;1.58;;
30287;SDS011;17103;48.316;11.558;2023-08-01T01:36:45;2.55;;;1.55;;
30287;SDS011;17103;48.316;11.558;2023-08-01T01:39:10;3.30;;;2.17;;
30287;SDS011;17103;48.316;11.558;2023-08-01T01:41:39;1.90;;;1.65;;
30287;SDS011;17103;48.316;11.558;2023-08-01T01:44:12;3.70;;;1.92;;
30287;SDS011;17103;48.316;11.558;2023-08-01T01:46:43;3.90;;;2.10;;
30287;SDS011;17103;48.316;11.558;2023-08-01T01:49:21;3.10;;;1.83;;
30287;SDS011;17103;48.316;11.558;2023-08-01T01:51:49;3.55;;;2.00;;
30287;SDS011;17103;48.316;11.558;2023-08-01T01:54:22;2.92;;;1.67;;
30287;SDS011;17103;48.316;11.558;2023-08-01T01:56:52;2.72;;;1.70;;
30287;SDS011;17103;48.316;11.558;2023-08-01T01:59:18;5.72;;;1.83;;
30287;SDS011;17103;48.316;11.558;2023-08-01T02:01:45;2.60;;;1.80;;
30287;SDS011;17103;48.316;11.558;2023-08-01T02:04:10;2.83;;;1.60;;
30287;SDS011;17103;48.316;11.558;2023-08-01T02:06:39;3.47;;;1.75;;
30287;SDS011;17103;48.316;11.558;2023-08-01T02:09:04;2.05;;;1.55;;
30287;SDS011;17103;48.316;11.558;2023-08-01T02:11:32;2.80;;;1.63;;
30287;SDS011;17103;48.316;11.558;2023-08-01T02:13:57;4.78;;;2.60;;
30287;SDS011;17103;48.316;11.558;2023-08-01T02:16:24;3.85;;;1.90;;
30287;SDS011;17103;48.316;11.558;2023-08-01T02:18:50;5.38;;;2.88;;
30287;SDS011;17103;48.316;11.558;2023-08-01T02:21:16;2.67;;;1.95;;
30287;SDS011;17103;48.316;11.558;2023-08-01T02:23:41;2.88;;;2.05;;
30287;SDS011;17103;48.316;11.558;2023-08-01T02:26:07;2.47;;;1.65;;
30287;SDS011;17103;48.316;11.558;2023-08-01T02:31:04;2.70;;;1.83;;
30287;SDS011;17103;48.316;11.558;2023-08-01T02:33:34;2.75;;;1.60;;
30287;SDS011;17103;48.316;11.558;2023-08-01T02:36:01;2.78;;;1.48;;
30287;SDS011;17103;48.316;11.558;2023-08-01T02:38:42;3.67;;;2.00;;
30287;SDS011;17103;48.316;11.558;2023-08-01T02:41:12;2.83;;;1.87;;
30287;SDS011;17103;48.316;11.558;2023-08-01T02:43:39;2.28;;;1.50;;
30287;SDS011;17103;48.316;11.558;2023-08-01T02:46:06;2.88;;;1.58;;
30287;SDS011;17103;48.316;11.558;2023-08-01T02:48:35;3.03;;;1.77;;
30287;SDS011;17103;48.316;11.558;2023-08-01T02:51:02;2.97;;;1.90;;
30287;SDS011;17103;48.316;11.558;2023-08-01T02:53:29;3.28;;;2.00;;
30287;SDS011;17103;48.316;11.558;2023-08-01T02:55:58;3.35;;;1.70;;
30287;SDS011;17103;48.316;11.558;2023-08-01T02:58:24;3.88;;;2.28;;
30287;SDS011;17103;48.316;11.558;2023-08-01T03:00:51;3.03;;;1.92;;
30287;SDS011;17103;48.316;11.558;2023-08-01T03:03:16;2.60;;;1.73;;
30287;SDS011;17103;48.316;11.558;2023-08-01T03:05:42;3.97;;;2.00;;
30287;SDS011;17103;48.316;11.558;2023-08-01T03:08:09;2.83;;;1.75;;
30287;SDS011;17103;48.316;11.558;2023-08-01T03:10:35;2.92;;;1.67;;
30287;SDS011;17103;48.316;11.558;2023-08-01T03:13:00;2.80;;;1.92;;
30287;SDS011;17103;48.316;11.558;2023-08-01T03:15:27;2.85;;;2.30;;
30287;SDS011;17103;48.316;11.558;2023-08-01T03:17:54;2.65;;;1.77;;
30287;SDS011;17103;48.316;11.558;2023-08-01T03:20:22;5.10;;;2.45;;
30287;SDS011;17103;48.316;11.558;2023-08-01T03:22:48;3.08;;;1.88;;
30287;SDS011;17103;48.316;11.558;2023-08-01T03:25:14;2.95;;;1.85;;
30287;SDS011;17103;48.316;11.558;2023-08-01T03:27:43;4.95;;;2.35;;
30287;SDS011;17103;48.316;11.558;2023-08-01T03:30:08;3.15;;;1.90;;
30287;SDS011;17103;48.316;11.558;2023-08-01T03:32:39;4.25;;;2.13;;
30287;SDS011;17103;48.316;11.558;2023-08-01T03:35:05;3.72;;;2.33;;
30287;SDS011;17103;48.316;11.558;2023-08-01T03:40:15;3.80;;;2.22;;
30287;SDS011;17103;48.316;11.558;2023-08-01T03:47:39;4.47;;;2.03;;
30287;SDS011;17103;48.316;11.558;2023-08-01T03:50:05;3.47;;;2.17;;
30287;SDS011;17103;48.316;11.558;2023-08-01T03:52:32;4.18;;;2.28;;
30287;SDS011;17103;48.316;11.558;2023-08-01T03:57:28;4.05;;;2.20;;
30287;SDS011;17103;48.316;11.558;2023-08-01T04:00:07;3.00;;;2.20;;
30287;SDS011;17103;48.316;11.558;2023-08-01T04:02:51;4.32;;;2.50;;
30287;SDS011;17103;48.316;11.558;2023-08-01T04:05:17;4.50;;;2.20;;
30287;SDS011;17103;48.316;11.558;2023-08-01T04:07:43;3.15;;;1.80;;
30287;SDS011;17103;48.316;11.558;2023-08-01T04:10:11;3.67;;;2.05;;
30287;SDS011;17103;48.316;11.558;2023-08-01T04:12:36;5.80;;;2.72;;
30287;SDS011;17103;48.316;11.558;2023-08-01T04:15:02;4.72;;;2.13;;
30287;SDS011;17103;48.316;11.558;2023-08-01T04:17:27;3.97;;;2.05;;
30287;SDS011;17103;48.316;11.558;2023-08-01T04:19:54;4.35;;;2.47;;
30287;SDS011;17103;48.316;11.558;2023-08-01T04:22:23;4.50;;;2.58;;
30287;SDS011;17103;48.316;11.558;2023-08-01T04:24:50;2.90;;;1.83;;
30287;SDS011;17103;48.316;11.558;2023-08-01T04:27:19;3.92;;;2.63;;
30287;SDS011;17103;48.316;11.558;2023-08-01T04:29:47;3.40;;;2.25;;
30287;SDS011;17103;48.316;11.558;2023-08-01T04:32:23;5.13;;;2.70;;
30287;SDS011;17103;48.316;11.558;2023-08-01T04:34:58;3.97;;;2.22;;
30287;SDS011;17103;48.316;11.558;2023-08-01T04:37:23;5.30;;;2.15;;
30287;SDS011;17103;48.316;11.558;2023-08-01T04:39:54;6.40;;;2.08;;
30287;SDS011;17103;48.316;11.558;2023-08-01T04:42:21;2.83;;;1.95;;
30287;SDS011;17103;48.316;11.558;2023-08-01T04:44:48;4.15;;;2.00;;
30287;SDS011;17103;48.316;11.558;2023-08-01T04:47:14;3.58;;;2.08;;
30287;SDS011;17103;48.316;11.558;2023-08-01T04:49:39;5.65;;;2.72;;
30287;SDS011;17103;48.316;11.558;2023-08-01T04:52:05;3.08;;;2.58;;
30287;SDS011;17103;48.316;11.558;2023-08-01T04:54:31;3.83;;;2.30;;
30287;SDS011;17103;48.316;11.558;2023-08-01T04:56:56;4.43;;;2.47;;
30287;SDS011;17103;48.316;11.558;2023-08-01T04:59:22;3.35;;;2.20;;
30287;SDS011;17103;48.316;11.558;2023-08-01T05:01:48;3.17;;;1.73;;
30287;SDS011;17103;48.316;11.558;2023-08-01T05:04:14;5.65;;;2.40;;
30287;SDS011;17103;48.316;11.558;2023-08-01T05:06:40;3.88;;;2.67;;
30287;SDS011;17103;48.316;11.558;2023-08-01T05:09:05;5.70;;;2.40;;
30287;SDS011;17103;48.316;11.558;2023-08-01T05:11:32;3.65;;;2.30;;
30287;SDS011;17103;48.316;11.558;2023-08-01T05:13:57;3.63;;;2.15;;
30287;SDS011;17103;48.316;11.558;2023-08-01T05:16:23;2.75;;;2.13;;
30287;SDS011;17103;48.316;11.558;2023-08-01T05:18:48;6.13;;;2.22;;
30287;SDS011;17103;48.316;11.558;2023-08-01T05:21:14;3.60;;;2.20;;
30287;SDS011;17103;48.316;11.558;2023-08-01T05:23:40;4.15;;;2.65;;
30287;SDS011;17103;48.316;11.558;2023-08-01T05:26:05;6.22;;;2.53;;
30287;SDS011;17103;48.316;11.558;2023-08-01T05:28:31;4.10;;;2.60;;
30287;SDS011;17103;48.316;11.558;2023-08-01T05:30:56;4.03;;;2.42;;
30287;SDS011;17103;48.316;11.558;2023-08-01T05:33:22;6.20;;;2.25;;
30287;SDS011;17103;48.316;11.558;2023-08-01T05:35:48;4.25;;;2.92;;
30287;SDS011;17103;48.316;11.558;2023-08-01T05:38:14;6.03;;;2.33;;
30287;SDS011;17103;48.316;11.558;2023-08-01T05:40:41;5.75;;;2.42;;
30287;SDS011;17103;48.316;11.558;2023-08-01T05:43:07;5.25;;;3.13;;
30287;SDS011;17103;48.316;11.558;2023-08-01T05:45:36;5.35;;;2.50;;
30287;SDS011;17103;48.316;11.558;2023-08-01T05:48:02;3.17;;;2.30;;
30287;SDS011;17103;48.316;11.558;2023-08-01T05:50:28;4.50;;;2.70;;
30287;SDS011;17103;48.316;11.558;2023-08-01T05:52:54;4.63;;;3.20;;
30287;SDS011;17103;48.316;11.558;2023-08-01T05:55:20;5.00;;;3.10;;
30287;SDS011;17103;48.316;11.558;2023-08-01T05:57:46;4.75;;;2.20;;
30287;SDS011;17103;48.316;11.558;2023-08-01T06:00:14;3.88;;;2.55;;
30287;SDS011;17103;48.316;11.558;2023-08-01T06:02:40;3.53;;;2.33;;
30287;SDS011;17103;48.316;11.558;2023-08-01T06:05:06;4.65;;;2.53;;
30287;SDS011;17103;48.316;11.558;2023-08-01T06:07:32;6.07;;;2.55;;
30287;SDS011;17103;48.316;11.558;2023-08-01T06:09:58;3.75;;;2.35;;
30287;SDS011;17103;48.316;11.558;2023-08-01T06:12:24;3.55;;;2.35;;
30287;SDS011;17103;48.316;11.558;2023-08-01T06:14:50;4.25;;;2.40;;
30287;SDS011;17103;48.316;11.558;2023-08-01T06:17:16;3.35;;;2.13;;
30287;SDS011;17103;48.316;11.558;2023-08-01T06:19:43;3.97;;;3.05;;
30287;SDS011;17103;48.316;11.558;2023-08-01T06:22:11;3.70;;;2.38;;
30287;SDS011;17103;48.316;11.558;2023-08-01T06:24:37;3.00;;;2.10;;
30287;SDS011;17103;48.316;11.558;2023-08-01T06:27:03;5.68;;;2.28;;
30287;SDS011;17103;48.316;11.558;2023-08-01T06:29:30;4.72;;;2.50;;
30287;SDS011;17103;48.316;11.558;2023-08-01T06:32:04;6.43;;;2.22;;
30287;SDS011;17103;48.316;11.558;2023-08-01T06:34:31;3.65;;;2.00;;
30287;SDS011;17103;48.316;11.558;2023-08-01T06:36:57;4.18;;;2.38;;
30287;SDS011;17103;48.316;11.558;2023-08-01T06:39:24;5.85;;;2.53;;
30287;SDS011;17103;48.316;11.558;2023-08-01T06:41:50;4.55;;;2.50;;
30287;SDS011;17103;48.316;11.558;2023-08-01T06:44:17;4.85;;;2.38;;
30287;SDS011;17103;48.316;11.558;2023-08-01T06:46:44;4.60;;;2.40;;
30287;SDS011;17103;48.316;11.558;2023-08-01T06:49:09;4.68;;;2.50;;
30287;SDS011;17103;48.316;11.558;2023-08-01T06:51:36;3.25;;;2.10;;
30287;SDS011;17103;48.316;11.558;2023-08-01T06:54:02;3.40;;;2.30;;
30287;SDS011;17103;48.316;11.558;2023-08-01T06:56:28;5.43;;;3.28;;
30287;SDS011;17103;48.316;11.558;2023-08-01T06:58:54;5.53;;;2.58;;
30287;SDS011;17103;48.316;11.558;2023-08-01T07:01:20;6.00;;;2.28;;
30287;SDS011;17103;48.316;11.558;2023-08-01T07:03:49;4.68;;;2.10;;
30287;SDS011;17103;48.316;11.558;2023-08-01T07:06:18;4.25;;;2.20;;
30287;SDS011;17103;48.316;11.558;2023-08-01T07:08:44;4.43;;;2.63;;
30287;SDS011;17103;48.316;11.558;2023-08-01T07:11:10;3.33;;;2.17;;
30287;SDS011;17103;48.316;11.558;2023-08-01T07:13:36;3.95;;;2.67;;
30287;SDS011;17103;48.316;11.558;2023-08-01T07:16:03;3.38;;;2.25;;
30287;SDS011;17103;48.316;11.558;2023-08-01T07:18:30;7.03;;;1.80;;
30287;SDS011;17103;48.316;11.558;2023-08-01T07:21:01;3.30;;;2.05;;
30287;SDS011;17103;48.316;11.558;2023-08-01T07:23:28;4.30;;;2.00;;
30287;SDS011;17103;48.316;11.558;2023-08-01T07:25:54;3.40;;;2.20;;
30287;SDS011;17103;48.316;11.558;2023-08-01T07:31:04;3.03;;;2.17;;
30287;SDS011;17103;48.316;11.558;2023-08-01T07:33:31;3.10;;;1.90;;
30287;SDS011;17103;48.316;11.558;2023-08-01T07:38:29;3.10;;;2.38;;
30287;SDS011;17103;48.316;11.558;2023-08-01T07:41:06;3.00;;;2.28;;
30287;SDS011;17103;48.316;11.558;2023-08-01T07:43:44;3.28;;;2.17;;
30287;SDS011;17103;48.316;11.558;2023-08-01T07:46:16;4.82;;;2.13;;
30287;SDS011;17103;48.316;11.558;2023-08-01T07:48:43;4.57;;;2.87;;
30287;SDS011;17103;48.316;11.558;2023-08-01T07:53:37;3.78;;;2.20;;
30287;SDS011;17103;48.316;11.558;2023-08-01T07:56:03;4.70;;;2.35;;
30287;SDS011;17103;48.316;11.558;2023-08-01T07:58:31;4.18;;;2.58;;
30287;SDS011;17103;48.316;11.558;2023-08-01T08:01:03;3.85;;;2.22;;
30287;SDS011;17103;48.316;11.558;2023-08-01T08:03:32;3.08;;;2.10;;
30287;SDS011;17103;48.316;11.558;2023-08-01T08:05:58;3.22;;;1.92;;
30287;SDS011;17103;48.316;11.558;2023-08-01T08:08:24;4.75;;;2.38;;
30287;SDS011;17103;48.316;11.558;2023-08-01T08:10:49;4.30;;;1.83;;
30287;SDS011;17103;48.316;11.558;2023-08-01T08:13:15;3.33;;;1.88;;
30287;SDS011;17103;48.316;11.558;2023-08-01T08:15:41;5.13;;;2.90;;
30287;SDS011;17103;48.316;11.558;2023-08-01T08:18:06;3.28;;;2.22;;
30287;SDS011;17103;48.316;11.558;2023-08-01T08:20:34;3.67;;;2.80;;
30287;SDS011;17103;48.316;11.558;2023-08-01T08:23:06;2.70;;;1.98;;
30287;SDS011;17103;48.316;11.558;2023-08-01T08:25:31;4.55;;;2.50;;
30287;SDS011;17103;48.316;11.558;2023-08-01T08:27:57;4.15;;;2.55;;
30287;SDS011;17103;48.316;11.558;2023-08-01T08:30:24;2.70;;;1.77;;
30287;SDS011;17103;48.316;11.558;2023-08-01T08:32:50;4.05;;;2.50;;
30287;SDS011;17103;48.316;11.558;2023-08-01T08:35:17;2.97;;;1.80;;
30287;SDS011;17103;48.316;11.558;2023-08-01T08:37:42;3.17;;;1.95;;
30287;SDS011;17103;48.316;11.558;2023-08-01T08:40:09;3.05;;;2.22;;
30287;SDS011;17103;48.316;11.558;2023-08-01T08:42:37;4.22;;;2.50;;
30287;SDS011;17103;48.316;11.558;2023-08-01T08:45:06;5.13;;;2.00;;
30287;SDS011;17103;48.316;11.558;2023-08-01T08:47:35;3.15;;;1.92;;
30287;SDS011;17103;48.316;11.558;2023-08-01T08:50:02;4.03;;;2.08;;
30287;SDS011;17103;48.316;11.558;2023-08-01T08:52:29;2.92;;;1.90;;
30287;SDS011;17103;48.316;11.558;2023-08-01T08:54:55;2.72;;;1.90;;
30287;SDS011;17103;48.316;11.558;2023-08-01T08:57:23;3.63;;;2.22;;
30287;SDS011;17103;48.316;11.558;2023-08-01T08:59:51;3.70;;;2.10;;
30287;SDS011;17103;48.316;11.558;2023-08-01T09:02:17;4.82;;;2.47;;
30287;SDS011;17103;48.316;11.558;2023-08-01T09:04:43;3.53;;;1.80;;
30287;SDS011;17103;48.316;11.558;2023-08-01T09:07:09;4.65;;;2.15;;
30287;SDS011;17103;48.316;11.558;2023-08-01T09:09:38;4.15;;;2.22;;
30287;SDS011;17103;48.316;11.558;2023-08-01T09:12:05;4.25;;;2.03;;
30287;SDS011;17103;48.316;11.558;2023-08-01T09:14:32;3.28;;;2.10;;
30287;SDS011;17103;48.316;11.558;2023-08-01T09:17:08;4.35;;;1.90;;
30287;SDS011;17103;48.316;11.558;2023-08-01T09:19:37;3.72;;;1.90;;
30287;SDS011;17103;48.316;11.558;2023-08-01T09:22:09;4.68;;;2.28;;
30287;SDS011;17103;48.316;11.558;2023-08-01T09:24:37;3.55;;;2.35;;
30287;SDS011;17103;48.316;11.558;2023-08-01T09:27:05;4.38;;;2.20;;
30287;SDS011;17103;48.316;11.558;2023-08-01T09:29:31;3.28;;;2.30;;
30287;SDS011;17103;48.316;11.558;2023-08-01T09:31:57;4.10;;;2.05;;
30287;SDS011;17103;48.316;11.558;2023-08-01T09:34:25;4.90;;;2.80;;
30287;SDS011;17103;48.316;11.558;2023-08-01T09:36:57;4.75;;;2.30;;
30287;SDS011;17103;48.316;11.558;2023-08-01T09:41:59;3.35;;;1.98;;
30287;SDS011;17103;48.316;11.558;2023-08-01T09:44:28;5.25;;;2.35;;
30287;SDS011;17103;48.316;11.558;2023-08-01T09:46:55;6.82;;;2.05;;
30287;SDS011;17103;48.316;11.558;2023-08-01T09:49:21;3.13;;;2.20;;
30287;SDS011;17103;48.316;11.558;2023-08-01T09:51:47;3.85;;;2.13;;
30287;SDS011;17103;48.316;11.558;2023-08-01T09:54:15;3.95;;;2.08;;
30287;SDS011;17103;48.316;11.558;2023-08-01T09:56:44;4.65;;;2.55;;
30287;SDS011;17103;48.316;11.558;2023-08-01T09:59:11;4.90;;;2.50;;
30287;SDS011;17103;48.316;11.558;2023-08-01T10:01:38;3.58;;;1.92;;
30287;SDS011;17103;48.316;11.558;2023-08-01T10:04:05;4.63;;;2.05;;
30287;SDS011;17103;48.316;11.558;2023-08-01T10:06:34;6.07;;;2.85;;
30287;SDS011;17103;48.316;11.558;2023-08-01T10:09:02;4.95;;;2.60;;
30287;SDS011;17103;48.316;11.558;2023-08-01T10:11:33;4.18;;;2.60;;
30287;SDS011;17103;48.316;11.558;2023-08-01T10:14:03;5.75;;;2.20;;
30287;SDS011;17103;48.316;11.558;2023-08-01T10:16:31;3.47;;;1.83;;
30287;SDS011;17103;48.316;11.558;2023-08-01T10:19:04;6.25;;;2.45;;
30287;SDS011;17103;48.316;11.558;2023-08-01T10:21:35;4.38;;;1.90;;
30287;SDS011;17103;48.316;11.558;2023-08-01T10:24:03;2.58;;;1.92;;
30287;SDS011;17103;48.316;11.558;2023-08-01T10:26:31;5.85;;;2.10;;
30287;SDS011;17103;48.316;11.558;2023-08-01T10:31:28;3.22;;;1.70;;
30287;SDS011;17103;48.316;11.558;2023-08-01T10:34:03;4.63;;;2.28;;
30287;SDS011;17103;48.316;11.558;2023-08-01T10:39:10;3.00;;;1.40;;
30287;SDS011;17103;48.316;11.558;2023-08-01T10:41:49;2.60;;;1.20;;
30287;SDS011;17103;48.316;11.558;2023-08-01T10:44:26;2.90;;;1.90;;
30287;SDS011;17103;48.316;11.558;2023-08-01T10:52:23;2.47;;;1.38;;
30287;SDS011;17103;48.316;11.558;2023-08-01T10:55:01;2.00;;;1.23;;
30287;SDS011;17103;48.316;11.558;2023-08-01T10:57:29;6.05;;;1.90;;
30287;SDS011;17103;48.316;11.558;2023-08-01T10:59:59;2.60;;;1.67;;
30287;SDS011;17103;48.316;11.558;2023-08-01T11:02:25;4.45;;;2.15;;
30287;SDS011;17103;48.316;11.558;2023-08-01T11:04:55;2.63;;;1.60;;
30287;SDS011;17103;48.316;11.558;2023-08-01T11:07:23;3.15;;;1.85;;
30287;SDS011;17103;48.316;11.558;2023-08-01T11:10:13;1.63;;;1.20;;
30287;SDS011;17103;48.316;11.558;2023-08-01T11:12:39;2.75;;;1.98;;
30287;SDS011;17103;48.316;11.558;2023-08-01T11:15:08;3.63;;;1.77;;
30287;SDS011;17103;48.316;11.558;2023-08-01T11:17:36;4.13;;;2.28;;
30287;SDS011;17103;48.316;11.558;2023-08-01T11:20:03;3.45;;;1.67;;
30287;SDS011;17103;48.316;11.558;2023-08-01T11:22:33;3.40;;;1.88;;
30287;SDS011;17103;48.316;11.558;2023-08-01T11:24:59;3.45;;;1.67;;
30287;SDS011;17103;48.316;11.558;2023-08-01T11:27:25;3.97;;;1.60;;
30287;SDS011;17103;48.316;11.558;2023-08-01T11:29:52;3.25;;;1.83;;
30287;SDS011;17103;48.316;11.558;2023-08-01T11:32:18;2.90;;;1.88;;
30287;SDS011;17103;48.316;11.558;2023-08-01T11:34:46;7.45;;;1.75;;
30287;SDS011;17103;48.316;11.558;2023-08-01T11:37:13;4.57;;;1.63;;
30287;SDS011;17103;48.316;11.558;2023-08-01T11:39:40;2.22;;;1.42;;
30287;SDS011;17103;48.316;11.558;2023-08-01T11:42:06;3.28;;;1.73;;
30287;SDS011;17103;48.316;11.558;2023-08-01T11:44:33;4.43;;;1.75;;
30287;SDS011;17103;48.316;11.558;2023-08-01T11:46:58;3.42;;;1.80;;
30287;SDS011;17103;48.316;11.558;2023-08-01T11:49:24;4.13;;;1.67;;
30287;SDS011;17103;48.316;11.558;2023-08-01T11:51:51;1.98;;;1.02;;
30287;SDS011;17103;48.316;11.558;2023-08-01T11:54:16;2.58;;;1.70;;
30287;SDS011;17103;48.316;11.558;2023-08-01T11:56:43;2.17;;;1.25;;
30287;SDS011;17103;48.316;11.558;2023-08-01T11:59:12;1.50;;;1.10;;
30287;SDS011;17103;48.316;11.558;2023-08-01T12:01:41;2.03;;;1.02;;
30287;SDS011;17103;48.316;11.558;2023-08-01T12:04:08;3.47;;;1.40;;
30287;SDS011;17103;48.316;11.558;2023-08-01T12:06:34;2.53;;;1.60;;
30287;SDS011;17103;48.316;11.558;2023-08-01T12:09:08;2.30;;;1.27;;
30287;SDS011;17103;48.316;11.558;2023-08-01T12:11:43;3.15;;;1.63;;
30287;SDS011;17103;48.316;11.558;2023-08-01T12:14:12;2.33;;;1.30;;
30287;SDS011;17103;48.316;11.558;2023-08-01T12:16:40;1.92;;;1.25;;
30287;SDS011;17103;48.316;11.558;2023-08-01T12:19:20;2.60;;;1.40;;
30287;SDS011;17103;48.316;11.558;2023-08-01T12:21:48;2.05;;;1.25;;
30287;SDS011;17103;48.316;11.558;2023-08-01T12:24:14;3.03;;;1.40;;
30287;SDS011;17103;48.316;11.558;2023-08-01T12:26:40;1.85;;;1.35;;
30287;SDS011;17103;48.316;11.558;2023-08-01T12:29:05;3.78;;;1.60;;
30287;SDS011;17103;48.316;11.558;2023-08-01T12:31:33;3.50;;;1.58;;
30287;SDS011;17103;48.316;11.558;2023-08-01T12:33:59;3.70;;;1.50;;
30287;SDS011;17103;48.316;11.558;2023-08-01T12:36:25;2.90;;;1.75;;
30287;SDS011;17103;48.316;11.558;2023-08-01T12:38:51;2.17;;;1.40;;
30287;SDS011;17103;48.316;11.558;2023-08-01T12:41:17;2.50;;;1.30;;
30287;SDS011;17103;48.316;11.558;2023-08-01T12:43:43;3.22;;;1.75;;
30287;SDS011;17103;48.316;11.558;2023-08-01T12:46:08;2.20;;;1.40;;
30287;SDS011;17103;48.316;11.558;2023-08-01T12:48:34;6.53;;;1.52;;
30287;SDS011;17103;48.316;11.558;2023-08-01T12:50:59;3.30;;;1.73;;
30287;SDS011;17103;48.316;11.558;2023-08-01T12:53:25;3.63;;;1.83;;
30287;SDS011;17103;48.316;11.558;2023-08-01T12:55:51;2.63;;;2.05;;
30287;SDS011;17103;48.316;11.558;2023-08-01T12:58:17;3.17;;;1.48;;
30287;SDS011;17103;48.316;11.558;2023-08-01T13:00:43;2.72;;;1.95;;
30287;SDS011;17103;48.316;11.558;2023-08-01T13:03:11;2.72;;;2.03;;
30287;SDS011;17103;48.316;11.558;2023-08-01T13:05:38;3.72;;;2.03;;
30287;SDS011;17103;48.316;11.558;2023-08-01T13:08:05;2.88;;;1.60;;
30287;SDS011;17103;48.316;11.558;2023-08-01T13:10:31;4.55;;;2.13;;
30287;SDS011;17103;48.316;11.558;2023-08-01T13:12:58;2.53;;;1.65;;
30287;SDS011;17103;48.316;11.558;2023-08-01T13:15:25;1.98;;;1.35;;
30287;SDS011;17103;48.316;11.558;2023-08-01T13:17:52;2.45;;;1.50;;
30287;SDS011;17103;48.316;11.558;2023-08-01T13:20:18;1.83;;;1.40;;
30287;SDS011;17103;48.316;11.558;2023-08-01T13:22:48;3.47;;;1.50;;
30287;SDS011;17103;48.316;11.558;2023-08-01T13:25:15;2.40;;;1.00;;
30287;SDS011;17103;48.316;11.558;2023-08-01T13:27:41;3.47;;;0.85;;
30287;SDS011;17103;48.316;11.558;2023-08-01T13:30:07;1.00;;;0.65;;
30287;SDS011;17103;48.316;11.558;2023-08-01T13:32:34;1.92;;;0.70;;
30287;SDS011;17103;48.316;11.558;2023-08-01T13:35:00;2.90;;;0.60;;
30287;SDS011;17103;48.316;11.558;2023-08-01T13:37:25;1.75;;;0.50;;
30287;SDS011;17103;48.316;11.558;2023-08-01T13:39:51;0.98;;;0.50;;
30287;SDS011;17103;48.316;11.558;2023-08-01T13:42:17;1.83;;;0.70;;
30287;SDS011;17103;48.316;11.558;2023-08-01T13:44:43;0.95;;;0.50;;
30287;SDS011;17103;48.316;11.558;2023-08-01T13:47:08;0.85;;;0.60;;
30287;SDS011;17103;48.316;11.558;2023-08-01T13:49:35;2.45;;;0.88;;
30287;SDS011;17103;48.316;11.558;2023-08-01T13:52:00;2.30;;;0.98;;
30287;SDS011;17103;48.316;11.558;2023-08-01T13:54:26;2.05;;;1.25;;
30287;SDS011;17103;48.316;11.558;2023-08-01T13:56:51;3.95;;;1.33;;
30287;SDS011;17103;48.316;11.558;2023-08-01T13:59:18;2.40;;;1.30;;
30287;SDS011;17103;48.316;11.558;2023-08-01T14:01:45;1.98;;;1.33;;
30287;SDS011;17103;48.316;11.558;2023-08-01T14:04:11;2.10;;;1.45;;
30287;SDS011;17103;48.316;11.558;2023-08-01T14:06:39;2.28;;;1.42;;
30287;SDS011;17103;48.316;11.558;2023-08-01T14:09:06;2.63;;;1.55;;
30287;SDS011;17103;48.316;11.558;2023-08-01T14:11:33;1.83;;;1.00;;
30287;SDS011;17103;48.316;11.558;2023-08-01T14:14:00;4.15;;;1.40;;
30287;SDS011;17103;48.316;11.558;2023-08-01T14:16:27;2.53;;;1.30;;
30287;SDS011;17103;48.316;11.558;2023-08-01T14:18:53;1.40;;;0.80;;
30287;SDS011;17103;48.316;11.558;2023-08-01T14:21:19;1.63;;;0.90;;
30287;SDS011;17103;48.316;11.558;2023-08-01T14:23:44;2.03;;;1.00;;
30287;SDS011;17103;48.316;11.558;2023-08-01T14:26:11;2.00;;;0.88;;
30287;SDS011;17103;48.316;11.558;2023-08-01T14:28:37;2.38;;;0.90;;
30287;SDS011;17103;48.316;11.558;2023-08-01T14:31:03;0.95;;;0.55;;
30287;SDS011;17103;48.316;11.558;2023-08-01T14:33:30;1.50;;;0.50;;
30287;SDS011;17103;48.316;11.558;2023-08-01T14:35:56;0.98;;;0.40;;
30287;SDS011;17103;48.316;11.558;2023-08-01T14:38:22;0.82;;;0.38;;
30287;SDS011;17103;48.316;11.558;2023-08-01T14:40:48;1.58;;;0.40;;
30287;SDS011;17103;48.316;11.558;2023-08-01T14:43:13;2.15;;;0.55;;
30287;SDS011;17103;48.316;11.558;2023-08-01T14:45:40;0.90;;;0.38;;
30287;SDS011;17103;48.316;11.558;2023-08-01T14:48:06;1.42;;;0.65;;
30287;SDS011;17103;48.316;11.558;2023-08-01T14:50:34;3.72;;;0.57;;
30287;SDS011;17103;48.316;11.558;2023-08-01T14:53:00;2.05;;;0.55;;
30287;SDS011;17103;48.316;11.558;2023-08-01T14:55:29;1.65;;;0.80;;
30287;SDS011;17103;48.316;11.558;2023-08-01T14:57:56;1.10;;;0.70;;
30287;SDS011;17103;48.316;11.558;2023-08-01T15:00:22;1.50;;;0.80;;
30287;SDS011;17103;48.316;11.558;2023-08-01T15:02:48;1.88;;;0.75;;
30287;SDS011;17103;48.316;11.558;2023-08-01T15:05:14;1.88;;;0.85;;
30287;SDS011;17103;48.316;11.558;2023-08-01T15:07:41;1.55;;;0.90;;
30287;SDS011;17103;48.316;11.558;2023-08-01T15:10:08;1.55;;;1.00;;
30287;SDS011;17103;48.316;11.558;2023-08-01T15:12:36;2.53;;;1.35;;
30287;SDS011;17103;48.316;11.558;2023-08-01T15:15:02;1.60;;;1.08;;